Home > Products > Valid Products > MTR

000
SAUS46 KPDT 012357
MTRMEH
METAR KMEH 012356Z AUTO 00000KT 10SM -RA OVC019 03/02 A3002 RMK AO2
SLP185 P0004 60029 T00330022 10039 20011 56008





000
SAUS46 KPDT 012321
MTRMEH
SPECI KMEH 012319Z AUTO 00000KT 3SM -RA BR OVC015 03/02 A3003 RMK
AO2 P0002 T00280022





000
SAUS46 KPDT 012257
MTRMEH
METAR KMEH 012256Z AUTO 00000KT 4SM -RA BR BKN014 OVC020 03/02 A3003
RMK AO2 SLP190 P0008 T00280017





000
SAUS46 KPDT 012221
MTRMEH
SPECI KMEH 012220Z AUTO 00000KT 4SM -RA BR OVC018 03/02 A3003 RMK
AO2 P0004 T00280017





000
SAUS46 KPDT 012213
MTRMEH
SPECI KMEH 012213Z AUTO 00000KT 2 1/2SM -RA BR OVC018 03/02 A3004
RMK AO2 P0003 T00280022





000
SAUS46 KPDT 012213
MTRMEH
SPECI KMEH 012213Z AUTO 00000KT 2 1/2SM -RA BR OVC018 03/02 A3004
RMK AO2 P0003 T00280022





000
SAUS46 KPDT 012156
MTRMEH
METAR KMEH 012156Z AUTO 00000KT 3SM RA BR OVC018 03/02 A3003 RMK AO2
SLP191 P0008 T00280017





000
SAUS46 KPDT 012156
MTRMEH
METAR KMEH 012156Z AUTO 00000KT 3SM RA BR OVC018 03/02 A3003 RMK AO2
SLP191 P0008 T00280017





000
SAUS46 KPDT 012149
MTRMEH
SPECI KMEH 012148Z AUTO 00000KT 3SM -RA BR OVC019 03/02 A3004 RMK
AO2 P0007 T00280022





000
SAUS46 KPDT 012129
MTRMEH
SPECI KMEH 012127Z AUTO 00000KT 2SM -RA BR OVC019 03/02 A3004 RMK
AO2 P0004 T00330022





000
SAUS46 KPDT 012057
MTRMEH
METAR KMEH 012056Z AUTO 00000KT 3SM RA BR OVC018 03/02 A3005 RMK AO2
SLP196 P0005 60009 T00330022 58007





000
SAUS46 KPDT 011958
MTRMEH
METAR KMEH 011956Z AUTO 00000KT 3SM -RA BR SCT018 OVC023 03/02 A3007
RMK AO2 SLP202 P0004 T00330022





000
SAUS46 KPDT 011905
MTRMEH
SPECI KMEH 011904Z AUTO 00000KT 7SM -RA BKN021 OVC029 02/01 A3007
RMK AO2 P0001 T00170006





000
SAUS46 KPDT 011857
MTRMEH
METAR KMEH 011856Z AUTO 00000KT 7SM -RA SCT024 OVC033 02/00 A3007
RMK AO2 SLP208 P0000 T00170000





000
SAUS46 KPDT 011757
MTRMEH
METAR KMEH 011756Z AUTO 00000KT 10SM -RA OVC037 01/M01 A3007 RMK AO2
UPB04E16RAB16 SLP208 P0001 60001 T00061011 10011 21011 56002





000
SAUS46 KPDT 011658
MTRMEH
METAR KMEH 011656Z AUTO 00000KT 10SM OVC050 00/M03 A3007 RMK AO2
SLP208 T00001028





000
SAUS46 KPDT 011558
MTRMEH
METAR KMEH 011556Z AUTO 00000KT 10SM BKN095 OVC120 M01/M03 A3008 RMK
AO2 SLP212 T10111028





000
SAUS46 KPDT 011558
MTRMEH
METAR KMEH 011556Z AUTO 00000KT 10SM BKN095 OVC120 M01/M03 A3008 RMK
AO2 SLP212 T10111028





000
SAUS46 KPDT 011500
MTRMEH
METAR KMEH 011456Z AUTO 00000KT 10SM BKN095 M01/M03 A3008 RMK AO2
SLP212 T10111028 56010





000
SAUS46 KPDT 011356
MTRMEH
METAR KMEH 011356Z AUTO 00000KT 10SM BKN095 OVC110 M01/M02 A3008 RMK
AO2 SLP214 T10061022





000
SAUS46 KPDT 011257
MTRMEH
METAR KMEH 011256Z AUTO 00000KT 10SM BKN100 OVC120 M01/M02 A3009 RMK
AO2 SLP216 T10111022





000
SAUS46 KPDT 011157
MTRMEH
METAR KMEH 011156Z AUTO 00000KT 10SM FEW085 OVC110 M01/M02 A3011 RMK
AO2 SLP220 T10061022 11006 21017 57007





000
SAUS46 KPDT 011100
MTRMEH
METAR KMEH 011056Z AUTO 00000KT 10SM OVC095 M01/M02 A3012 RMK AO2
SLP218 T10061022





000
SAUS46 KPDT 010957
MTRMEH
METAR KMEH 010956Z AUTO 00000KT 10SM FEW080 OVC095 M01/M02 A3013 RMK
AO2 SLP227 T10111022





000
SAUS46 KPDT 010900
MTRMEH
METAR KMEH 010856Z AUTO 00000KT 10SM OVC110 M01/M03 A3014 RMK AO2
SLP230 T10111028 55012





000
SAUS46 KPDT 010757
MTRMEH
METAR KMEH 010756Z AUTO 00000KT 10SM BKN120 M02/M03 A3013 RMK AO2
SLP226 T10171033 400501083





000
SAUS46 KPDT 010657
MTRMEH
METAR KMEH 010656Z AUTO 00000KT 10SM OVC110 M02/M03 A3016 RMK AO2
SLP233 T10171033





000
SAUS46 KPDT 010657
MTRMEH
METAR KMEH 010656Z AUTO 00000KT 10SM OVC110 M02/M03 A3016 RMK AO2
SLP233 T10171033





000
SAUS46 KPDT 010558
MTRMEH
METAR KMEH 010556Z AUTO 00000KT 10SM FEW120 M02/M03 A3017 RMK AO2
SLP246 T10171033 10017 21017 55000





000
SAUS46 KPDT 010558
MTRMEH
METAR KMEH 010556Z AUTO 00000KT 10SM FEW120 M02/M03 A3017 RMK AO2
SLP246 T10171033 10017 21017 55000





000
SAUS46 KPDT 010457
MTRMEH
METAR KMEH 010456Z AUTO 00000KT 10SM FEW120 M02/M03 A3017 RMK AO2
SLP248 T10171033





000
SAUS46 KPDT 010457
MTRMEH
METAR KMEH 010456Z AUTO 00000KT 10SM FEW120 M02/M03 A3017 RMK AO2
SLP248 T10171033





000
SAUS46 KPDT 010357
MTRMEH
METAR KMEH 010356Z AUTO 00000KT 10SM FEW120 M01/M03 A3017 RMK AO2
SLP254 T10111028





000
SAUS46 KPDT 010357
MTRMEH
METAR KMEH 010356Z AUTO 00000KT 10SM FEW120 M01/M03 A3017 RMK AO2
SLP254 T10111028





000
SAUS46 KPDT 010257
MTRMEH
METAR KMEH 010256Z AUTO 00000KT 10SM FEW120 M01/M03 A3017 RMK AO2
SLP256 T10111028 50001





000
SAUS46 KPDT 010257
MTRMEH
METAR KMEH 010256Z AUTO 00000KT 10SM FEW120 M01/M03 A3017 RMK AO2
SLP256 T10111028 50001





000
SAUS46 KPDT 010157
MTRMEH
METAR KMEH 010156Z AUTO 00000KT 10SM CLR M02/M03 A3018 RMK AO2
SLP257 T10171028





000
SAUS46 KPDT 010157
MTRMEH
METAR KMEH 010156Z AUTO 00000KT 10SM CLR M02/M03 A3018 RMK AO2
SLP257 T10171028





000
SAUS46 KPDT 010056
MTRMEH
METAR KMEH 010056Z AUTO 00000KT 10SM CLR M01/M03 A3017 RMK AO2
SLP252 T10111033





000
SAUS46 KPDT 010056
MTRMEH
METAR KMEH 010056Z AUTO 00000KT 10SM CLR M01/M03 A3017 RMK AO2
SLP252 T10111033





000
SAUS46 KPDT 312357
MTRMEH
METAR KMEH 312356Z AUTO 00000KT 10SM CLR 02/M02 A3017 RMK AO2 SLP249
T00171017 10050 21011 55012





000
SAUS46 KPDT 312257
MTRMEH
METAR KMEH 312256Z AUTO 00000KT 10SM CLR 04/M02 A3017 RMK AO2 SLP244
T00391022





000
SAUS46 KPDT 312156
MTRMEH
METAR KMEH 312156Z AUTO 02003KT 10SM CLR 02/M02 A3018 RMK AO2 SLP248
T00221022





000
SAUS46 KPDT 312156
MTRMEH
METAR KMEH 312156Z AUTO 02003KT 10SM CLR 02/M02 A3018 RMK AO2 SLP248
T00221022





000
SAUS46 KPDT 312057
MTRMEH
METAR KMEH 312056Z AUTO VRB03KT 10SM CLR 01/M03 A3021 RMK AO2 SLP261
T00061028 50003





000
SAUS46 KPDT 311957
MTRMEH
METAR KMEH 311956Z AUTO VRB04KT 10SM CLR 03/M02 A3021 RMK AO2 SLP259
T00281022





000
SAUS46 KPDT 311857
MTRMEH
METAR KMEH 311856Z AUTO 00000KT 10SM CLR 03/M01 A3021 RMK AO2 SLP254
T00331011





000
SAUS46 KPDT 311757
MTRMEH
METAR KMEH 311756Z AUTO 00000KT 10SM CLR M01/M02 A3020 RMK AO2
SLP256 I6000 T10061017 11006 21083 50002





000
SAUS46 KPDT 311700
MTRMEH
METAR KMEH 311656Z AUTO 00000KT 8SM SCT001 M04/M06 A3020 RMK AO2
SLP262 T10441056





000
SAUS46 KPDT 311654
MTRMEH
SPECI KMEH 311652Z AUTO 00000KT 2 1/2SM BR BKN001 M05/M06 A3020 RMK
AO2





000
SAUS46 KPDT 311639
MTRMEH
SPECI KMEH 311639Z AUTO 00000KT 1 1/2SM BR OVC002 M06/M07 A3020 RMK
AO2 VIS 3/4V4 T10561067





000
SAUS46 KPDT 311606
MTRMEH
SPECI KMEH 311604Z AUTO 00000KT 10SM BKN003 M07/M09 A3020 RMK AO2
T10721089





000
SAUS46 KPDT 311557
MTRMEH
METAR KMEH 311556Z AUTO 00000KT 10SM SCT002 M08/M09 A3020 RMK AO2
SLP266 T10781094





000
SAUS46 KPDT 311457
MTRMEH
METAR KMEH 311456Z AUTO 00000KT 10SM CLR M08/M10 A3019 RMK AO2
SLP264 I1000 I3000 T10831100 53008





000
SAUS46 KPDT 311357
MTRMEH
METAR KMEH 311356Z AUTO 00000KT 10SM CLR M08/M10 A3017 RMK AO2
SLP253 I1000 T10781100





000
SAUS46 KPDT 311257
MTRMEH
METAR KMEH 311256Z AUTO 00000KT 10SM CLR M07/M09 A3017 RMK AO2
SLP251 I1000 T10721094





000
SAUS46 KPDT 311157
MTRMEH
METAR KMEH 311156Z AUTO 00000KT 10SM CLR M07/M09 A3016 RMK AO2
SLP245 I1000 I6000 T10721089 11033 21072 51002





000
SAUS46 KPDT 311057
MTRMEH
METAR KMEH 311056Z AUTO 00000KT 10SM CLR M07/M08 A3016 RMK AO2
SLP242 I1000 T10671083





000
SAUS46 KPDT 310957
MTRMEH
METAR KMEH 310956Z AUTO 00000KT 10SM CLR M06/M08 A3017 RMK AO2
SLP248 I1000 T10611083





000
SAUS46 KPDT 310901 COR
MTRMEH
METAR KMEH 310856Z AUTO 00000KT 10SM CLR M06/M08 A3016 RMK AO2
SLP240 I1000 I3000 T10561078 58007





000
SAUS46 KPDT 310756
MTRMEH
METAR KMEH 310756Z AUTO 00000KT 10SM CLR M05/M07 A3018 RMK AO2
SLP250 I1000 T10501067 400441067





000
SAUS46 KPDT 310656
MTRMEH
METAR KMEH 310656Z AUTO 00000KT 10SM FEW002 M04/M06 A3019 RMK AO2
SLP253 I1000 T10391056





000
SAUS46 KPDT 310601 COR
MTRMEH
METAR KMEH 310556Z AUTO 00000KT 10SM CLR M03/M05 A3018 RMK AO2
SLP251 I1000 I6000 T10331050 10017 21033 58009





000
SAUS46 KPDT 310557
MTRMEH
METAR KMEH 310556Z AUTO 00000KT 10SM CLR M03/M05 A3018 RMK AO2
SLP251 I1000 I6000 T10331050 10017 21033 58009





000
SAUS46 KPDT 310456
MTRMEH
METAR KMEH 310456Z AUTO 00000KT 10SM FEW002 M03/M04 A3020 RMK AO2
SLP261 I1000 T10281039





000
SAUS46 KPDT 310449
MTRMEH
SPECI KMEH 310449Z AUTO 00000KT 10SM SCT002 M03/M04 A3021 RMK AO2
I1000 T10281039





000
SAUS46 KPDT 310357
MTRMEH
METAR KMEH 310356Z AUTO 00000KT 4SM BR OVC002 M02/M03 A3021 RMK AO2
SLP268 T10221028





000
SAUS46 KPDT 310333
MTRMEH
SPECI KMEH 310332Z AUTO 00000KT 2SM BR OVC003 M02/M03 A3021 RMK AO2
T10221028





000
SAUS46 KPDT 310327
MTRMEH
SPECI KMEH 310325Z AUTO 00000KT 3/4SM BR VV003 M02/M03 A3021 RMK AO2
T10221028





000
SAUS46 KPDT 310257
MTRMEH
METAR KMEH 310256Z AUTO VRB03KT 1/4SM FZFG VV002 M02/M03 A3023 RMK
AO2 SLP274 T10221028 51013





000
SAUS46 KPDT 310157
MTRMEH
METAR KMEH 310156Z AUTO VRB03KT 1/4SM FZFG VV002 M02/M02 A3022 RMK
AO2 SLP270 T10171022





000
SAUS46 KPDT 310120
MTRMEH
SPECI KMEH 310116Z AUTO 00000KT 1/4SM FZFG VV002 M01/M02 A3022 RMK
AO2 T10111022





000
SAUS46 KPDT 310056
MTRMEH
METAR KMEH 310056Z AUTO VRB03KT 1SM BR OVC002 M01/M02 A3022 RMK AO2
SLP269 T10111017





000
SAUS46 KPDT 310043
MTRMEH
SPECI KMEH 310041Z AUTO VRB03KT 2 1/2SM BR BKN003 M01/M02 A3021 RMK
AO2 T10061017





000
SAUS46 KPDT 310040 COR
MTRMEH
SPECI KMEH 310035Z AUTO VRB03KT 5SM BR SCT003 M01/M02 A3021 RMK AO2
T10061022





000
SAUS46 KPDT 310036
MTRMEH
SPECI KMEH 310035Z AUTO VRB03KT 5SM BR SCT003 M01/M02 A3021 RMK AO2
T10061022





000
SAUS46 KPDT 302357
MTRMEH
METAR KMEH 302356Z AUTO 00000KT 10SM CLR 02/M01 A3019 RMK AO2 SLP252
T00221011 10044 20000 56019





000
SAUS46 KPDT 302257
MTRMEH
METAR KMEH 302256Z AUTO 00000KT 10SM CLR 04/M01 A3019 RMK AO2 SLP250
T00441011





000
SAUS46 KPDT 302157
MTRMEH
METAR KMEH 302156Z AUTO 00000KT 10SM CLR 02/M02 A3021 RMK AO2 SLP259
T00221017





000
SAUS46 KPDT 302056
MTRMEH
METAR KMEH 302056Z AUTO VRB03KT 10SM CLR 03/M02 A3025 RMK AO2 SLP270
T00281017 58014





000
SAUS46 KPDT 301957
MTRMEH
METAR KMEH 301956Z AUTO VRB05KT 10SM CLR 02/M02 A3028 RMK AO2 SLP280
T00171022





000
SAUS46 KPDT 301857
MTRMEH
METAR KMEH 301856Z AUTO 29004KT 10SM CLR 01/M03 A3029 RMK AO2 SLP288
T00061028





000
SAUS46 KPDT 301756
MTRMEH
METAR KMEH 301756Z AUTO 00000KT 10SM CLR 00/M02 A3030 RMK AO2 SLP289
I6000 T00001017 10000 21067 53007





000
SAUS46 KPDT 301656
MTRMEH
METAR KMEH 301656Z AUTO 00000KT 10SM CLR M03/M05 A3028 RMK AO2
SLP286 I1000 T10331050





000
SAUS46 KPDT 301611
MTRMEH
SPECI KMEH 301610Z AUTO 00000KT 10SM FEW002 M06/M08 A3028 RMK AO2
T10611078





000
SAUS46 KPDT 301557
MTRMEH
METAR KMEH 301556Z AUTO 00000KT 10SM CLR M06/M08 A3028 RMK AO2
SLP287 T10611078





000
SAUS46 KPDT 301457
MTRMEH
METAR KMEH 301456Z AUTO 00000KT 10SM CLR M07/M08 A3027 RMK AO2
SLP286 I1000 I3000 T10671083 58002





000
SAUS46 KPDT 301435
MTRMEH
SPECI KMEH 301434Z AUTO 00000KT 10SM SCT002 M06/M08 A3028 RMK AO2
T10611083





000
SAUS46 KPDT 301419
MTRMEH
SPECI KMEH 301415Z AUTO 00000KT 10SM BKN003 M06/M08 A3029 RMK AO2
CIG 002V005 T10611078





000
SAUS46 KPDT 301357
MTRMEH
METAR KMEH 301356Z AUTO 00000KT 10SM BKN005 M06/M08 A3029 RMK AO2
SLP289 I1000 T10611078





000
SAUS46 KPDT 301326
MTRMEH
SPECI KMEH 301325Z AUTO 00000KT 10SM BKN005 M06/M08 A3029 RMK AO2
T10611078





000
SAUS46 KPDT 301257
MTRMEH
METAR KMEH 301256Z AUTO 00000KT 10SM FEW004 M06/M08 A3029 RMK AO2
SLP284 I1000 T10561078





000
SAUS46 KPDT 301157
MTRMEH
METAR KMEH 301156Z AUTO 00000KT 10SM CLR M06/M07 A3028 RMK AO2
SLP278 I1000 I6001 T10561072 11028 21056 58003





000
SAUS46 KPDT 301124
MTRMEH
SPECI KMEH 301122Z AUTO 00000KT 10SM FEW002 M04/M07 A3028 RMK AO2
T10441067





000
SAUS46 KPDT 301059
MTRMEH
METAR KMEH 301056Z AUTO 00000KT 10SM CLR M04/M06 A3028 RMK AO2
SLP277 I1000 T10441061





000
SAUS46 KPDT 300957
MTRMEH
METAR KMEH 300956Z AUTO 00000KT 7SM CLR M04/M06 A3029 RMK AO2 SLP278
I1000 T10441061





000
SAUS46 KPDT 300857
MTRMEH
METAR KMEH 300856Z AUTO 00000KT 10SM CLR M04/M06 A3029 RMK AO2
SLP278 I3001 T10391061 58002





000
SAUS46 KPDT 300756
MTRMEH
METAR KMEH 300756Z AUTO 00000KT 9SM CLR M03/M05 A3029 RMK AO2 SLP280
I1001 T10331050 400781050





000
SAUS46 KPDT 300657
MTRMEH
METAR KMEH 300656Z AUTO 00000KT 9SM CLR M03/M04 A3029 RMK AO2 SLP281
T10281044





000
SAUS46 KPDT 300557
MTRMEH
METAR KMEH 300556Z AUTO 00000KT 10SM CLR M03/M04 A3030 RMK AO2
SLP284 T10281039 10061 21028 58002





000
SAUS46 KPDT 300457
MTRMEH
METAR KMEH 300456Z AUTO 00000KT 10SM CLR M02/M04 A3030 RMK AO2
SLP288 T10221039





000
SAUS46 KPDT 300357
MTRMEH
METAR KMEH 300356Z AUTO 00000KT 10SM CLR M01/M03 A3030 RMK AO2
SLP292 T10111028





000
SAUS46 KPDT 300257
MTRMEH
METAR KMEH 300256Z AUTO 00000KT 10SM CLR 00/M02 A3030 RMK AO2 SLP293
T00001022 52004





000
SAUS46 KPDT 300157
MTRMEH
METAR KMEH 300156Z AUTO 00000KT 10SM CLR 02/M02 A3030 RMK AO2 SLP289
T00171017





000
SAUS46 KPDT 300057
MTRMEH
METAR KMEH 300056Z AUTO 00000KT 10SM CLR 04/M01 A3029 RMK AO2 SLP284
T00441011





    US Dept of Commerce
    National Oceanic and Atmospheric Administration
    National Weather Service
    1325 East West Highway
    Silver Spring, MD 20910
    Page Author: NWS Internet Services Team
Disclaimer
Information Quality
Credits
Glossary
Privacy Policy
Freedom of Information Act (FOIA)
About Us
Career Opportunities